Time;durP1;ratioP1;P1;durP2;ratioP2;P2;SDS_P1;SDS_P2;PMS_P1;PMS_P2;Temp;Humidity;BMP_temperature;BMP_pressure;BME280_temperature;BME280_humidity;BME280_pressure;Samples;Min_cycle;Max_cycle;Signal;HPM_P1;HPM_P2
2022/08/26 00:01:12;;;;;;;28.25;20.23;;;;;;;20.57;92.54;100457.06;4961270;28;20038;-72
2022/08/26 00:03:38;;;;;;;29.08;19.58;;;;;;;20.55;92.87;100451.75;4961461;28;20046;-72
2022/08/26 00:06:04;;;;;;;39.63;22.48;;;;;;;20.47;96.52;100453.03;4960976;28;20047;-72
2022/08/26 00:08:29;;;;;;;27.33;20.23;;;;;;;20.37;95.56;100452.59;4959141;28;20102;-73
2022/08/26 00:10:55;;;;;;;30.27;18.75;;;;;;;20.38;94.79;100448.97;4963534;28;20122;-73
2022/08/26 00:13:20;;;;;;;27.58;19.05;;;;;;;20.44;93.85;100454.06;4964510;28;20125;-72
2022/08/26 00:15:46;;;;;;;31.85;19.45;;;;;;;20.52;94.29;100448.34;4962657;28;20046;-73
2022/08/26 00:18:12;;;;;;;27.33;19.17;;;;;;;20.57;93.84;100444.50;4963592;28;20054;-72
2022/08/26 00:20:38;;;;;;;27.85;18.33;;;;;;;20.57;93.20;100441.81;4963643;28;20067;-72
2022/08/26 00:23:04;;;;;;;29.02;19.27;;;;;;;20.56;93.48;100448.13;4961836;28;20094;-72
2022/08/26 00:25:30;;;;;;;21.30;17.98;;;;;;;20.53;93.13;100437.50;4947746;28;20122;-72
2022/08/26 00:27:56;;;;;;;36.63;20.15;;;;;;;20.53;93.26;100442.00;4961695;28;20054;-72
2022/08/26 00:30:24;;;;;;;30.20;18.92;;;;;;;20.58;92.95;100434.66;4963920;28;20097;-72
2022/08/26 00:32:50;;;;;;;41.03;20.05;;;;;;;20.61;93.04;100439.00;4962879;28;20537;-72
2022/08/26 00:35:15;;;;;;;22.90;19.38;;;;;;;20.60;93.07;100443.50;4960920;28;20035;-72
2022/08/26 00:37:41;;;;;;;23.45;17.25;;;;;;;20.59;92.92;100431.00;4963421;28;20049;-72
2022/08/26 00:40:11;;;;;;;27.05;19.73;;;;;;;20.55;93.12;100435.66;4961199;28;20553;-72
2022/08/26 00:42:37;;;;;;;21.02;16.58;;;;;;;20.55;93.00;100432.97;4959219;28;20039;-72
2022/08/26 00:45:03;;;;;;;21.33;16.23;;;;;;;20.44;93.45;100437.97;4961617;28;20046;-72
2022/08/26 00:47:51;;;;;;;21.65;15.98;;;;;;;20.27;94.82;100438.78;4962079;28;20043;-72
2022/08/26 00:50:21;;;;;;;24.75;17.30;;;;;;;20.27;94.40;100441.44;4961711;28;20046;-72
2022/08/26 00:52:47;;;;;;;35.40;19.73;;;;;;;20.30;95.01;100435.06;4960837;28;20035;-72
2022/08/26 00:55:28;;;;;;;31.45;19.75;;;;;;;20.28;95.78;100437.84;4964144;28;20094;-73
2022/08/26 00:57:54;;;;;;;24.75;19.00;;;;;;;20.24;95.49;100425.53;4963914;28;20146;-73
2022/08/26 01:00:24;;;;;;;30.02;20.08;;;;;;;20.28;95.10;100432.50;4961063;28;20047;-72
2022/08/26 01:02:50;;;;;;;27.40;19.35;;;;;;;20.26;97.39;100428.16;4963206;28;20035;-72
2022/08/26 01:05:17;;;;;;;24.50;17.85;;;;;;;20.23;96.58;100430.97;4960672;28;20050;-72
2022/08/26 01:07:43;;;;;;;25.45;16.92;;;;;;;20.22;96.09;100437.25;4963480;28;20039;-72
2022/08/26 01:10:11;;;;;;;28.50;20.58;;;;;;;20.22;95.78;100431.91;4961073;28;20039;-72
2022/08/26 01:12:41;;;;;;;27.38;18.73;;;;;;;20.22;95.21;100430.09;4957591;28;20405;-73
2022/08/26 01:15:15;;;;;;;27.20;17.80;;;;;;;20.20;94.75;100433.78;4962902;28;20039;-72
2022/08/26 01:17:41;;;;;;;22.55;17.48;;;;;;;20.17;95.11;100433.94;4964183;28;20086;-72
2022/08/26 01:20:20;;;;;;;28.58;20.63;;;;;;;20.14;95.00;100438.47;4960866;28;20054;-72
2022/08/26 01:23:07;;;;;;;19.48;15.88;;;;;;;20.15;96.70;100436.69;4961480;28;20039;-72
2022/08/26 01:25:38;;;;;;;29.75;19.10;;;;;;;20.05;96.37;100430.03;4961305;28;20130;-72
2022/08/26 01:28:08;;;;;;;20.48;16.33;;;;;;;20.04;96.62;100429.16;4960919;28;20098;-72
2022/08/26 01:30:37;;;;;;;25.65;17.17;;;;;;;20.03;96.14;100431.91;4963152;28;20113;-72
2022/08/26 01:33:07;;;;;;;30.25;20.58;;;;;;;20.04;96.10;100433.63;4962384;28;20035;-72
2022/08/26 01:35:33;;;;;;;26.63;17.98;;;;;;;20.05;96.94;100430.91;4958055;28;20494;-72
2022/08/26 01:38:01;;;;;;;22.05;17.55;;;;;;;20.01;96.06;100429.28;4963976;28;20160;-72
2022/08/26 01:40:31;;;;;;;28.70;19.95;;;;;;;20.00;97.36;100426.69;4929432;28;20055;-72
2022/08/26 01:42:57;;;;;;;35.38;22.95;;;;;;;19.89;100.00;100429.88;4961688;28;20126;-72
2022/08/26 01:45:26;;;;;;;32.10;17.77;;;;;;;19.81;99.83;100432.91;4963483;28;20035;-72
2022/08/26 01:47:55;;;;;;;23.92;18.75;;;;;;;19.82;98.99;100436.44;4956987;28;20031;-72
2022/08/26 01:50:24;;;;;;;27.42;17.48;;;;;;;19.88;98.28;100428.13;4962911;28;20038;-72
2022/08/26 01:52:51;;;;;;;34.85;20.15;;;;;;;19.87;99.02;100429.06;4962588;28;20043;-72
2022/08/26 01:55:19;;;;;;;32.33;21.52;;;;;;;19.90;98.71;100429.78;4963205;28;20448;-72
2022/08/26 01:57:47;;;;;;;33.90;20.17;;;;;;;19.93;98.67;100428.78;4959338;28;20054;-72
2022/08/26 02:00:14;;;;;;;28.98;21.02;;;;;;;19.92;98.73;100432.41;4965019;28;20131;-73
2022/08/26 02:02:42;;;;;;;34.25;22.13;;;;;;;19.92;97.81;100432.41;4965261;28;20035;-72
2022/08/26 02:05:12;;;;;;;34.47;23.98;;;;;;;19.85;98.63;100436.31;4963500;28;20830;-72
2022/08/26 02:07:39;;;;;;;27.85;19.92;;;;;;;19.85;98.98;100439.84;4964234;28;20088;-72
2022/08/26 02:10:05;;;;;;;19.40;16.88;;;;;;;19.86;98.12;100427.34;4964775;28;20156;-72
2022/08/26 02:12:31;;;;;;;29.60;19.35;;;;;;;19.85;98.16;100428.28;4965270;28;20081;-72
2022/08/26 02:15:02;;;;;;;36.03;21.88;;;;;;;19.81;98.35;100426.69;4963835;28;20708;-73
2022/08/26 02:17:42;;;;;;;25.58;19.52;;;;;;;19.78;98.25;100418.78;4966898;28;20038;-72
2022/08/26 02:20:09;;;;;;;28.85;19.98;;;;;;;19.73;98.27;100423.47;4966102;28;20039;-72
2022/08/26 02:22:34;;;;;;;21.67;16.02;;;;;;;19.66;99.27;100418.41;4963715;28;20109;-72
2022/08/26 02:25:16;;;;;;;22.77;16.92;;;;;;;19.65;98.61;100422.00;4966749;28;20039;-73
2022/08/26 02:27:41;;;;;;;26.60;17.67;;;;;;;19.61;98.47;100417.72;4964620;28;20391;-73
2022/08/26 02:30:12;;;;;;;28.48;19.83;;;;;;;19.59;99.28;100419.59;4963769;28;20054;-72
2022/08/26 02:32:38;;;;;;;23.38;17.80;;;;;;;19.50;99.72;100409.31;4960780;28;20106;-72
2022/08/26 02:35:04;;;;;;;31.08;19.55;;;;;;;19.52;99.70;100420.81;4964408;28;20031;-72
2022/08/26 02:37:30;;;;;;;33.38;21.40;;;;;;;19.56;99.18;100414.38;4965260;28;20046;-72
2022/08/26 02:39:55;;;;;;;21.75;19.45;;;;;;;19.60;99.90;100412.44;4963897;28;20042;-72
2022/08/26 02:42:21;;;;;;;35.63;24.13;;;;;;;19.59;100.00;100416.03;4966327;28;20031;-72
2022/08/26 02:44:48;;;;;;;33.10;21.98;;;;;;;19.59;100.00;100416.91;4963313;28;20069;-72
2022/08/26 02:47:15;;;;;;;36.97;22.95;;;;;;;19.61;100.00;100415.03;4965768;28;20122;-72
2022/08/26 02:49:42;;;;;;;36.50;24.63;;;;;;;19.60;99.93;100416.00;4964795;28;20498;-72
2022/08/26 02:52:07;;;;;;;40.88;30.60;;;;;;;19.58;100.00;100415.19;4963732;28;20458;-72
2022/08/26 02:54:33;;;;;;;37.90;25.83;;;;;;;19.56;99.62;100417.03;4965993;28;20046;-72
2022/08/26 02:56:59;;;;;;;23.13;19.90;;;;;;;19.51;99.52;100408.34;4963181;28;20031;-72
2022/08/26 02:59:25;;;;;;;23.55;19.95;;;;;;;19.51;99.27;100408.34;4965893;28;20030;-72
2022/08/26 03:01:51;;;;;;;27.83;18.90;;;;;;;19.47;100.00;100404.09;4962345;28;20039;-72
2022/08/26 03:04:16;;;;;;;37.08;25.35;;;;;;;19.45;100.00;100414.84;4962399;28;20041;-72
2022/08/26 03:06:41;;;;;;;29.77;24.30;;;;;;;19.45;100.00;100414.00;4964930;28;20069;-72
2022/08/26 03:09:08;;;;;;;33.72;24.02;;;;;;;19.44;100.00;100414.91;4963207;28;20040;-72
2022/08/26 03:11:34;;;;;;;43.25;28.20;;;;;;;19.44;100.00;100417.59;4965856;28;20042;-72
2022/08/26 03:14:00;;;;;;;42.22;26.42;;;;;;;19.48;100.00;100408.50;4931151;28;20035;-72
2022/08/26 03:16:25;;;;;;;33.53;22.42;;;;;;;19.52;100.00;100407.44;4964654;28;20567;-72
2022/08/26 03:18:51;;;;;;;32.72;21.55;;;;;;;19.43;100.00;100406.03;4964447;28;20031;-72
2022/08/26 03:21:17;;;;;;;43.40;26.55;;;;;;;19.39;100.00;100409.78;4963259;28;20480;-72
2022/08/26 03:23:43;;;;;;;28.20;20.50;;;;;;;19.42;100.00;100398.94;4965356;28;20038;-72
2022/08/26 03:26:11;;;;;;;34.28;27.50;;;;;;;19.45;100.00;100398.81;4961697;28;20034;-72
2022/08/26 03:30:38;;;;;;;35.05;25.27;;;;;;;19.49;100.00;100396.84;4965053;28;20031;-72
2022/08/26 03:31:22;;;;;;;42.22;24.88;;;;;;;19.44;100.00;100397.06;4958709;28;20047;-72
2022/08/26 03:33:47;;;;;;;30.45;23.13;;;;;;;19.33;100.00;100402.00;4964736;28;20073;-72
2022/08/26 03:36:12;;;;;;;30.13;21.35;;;;;;;19.25;100.00;100399.69;4961849;28;20121;-72
2022/08/26 03:38:38;;;;;;;35.05;24.63;;;;;;;19.22;100.00;100398.94;4958469;28;20089;-73
2022/08/26 03:41:03;;;;;;;33.65;26.30;;;;;;;19.22;100.00;100394.47;4958471;28;20117;-72
2022/08/26 03:43:28;;;;;;;34.33;24.48;;;;;;;19.16;100.00;100391.22;4964037;28;20031;-72
2022/08/26 03:45:54;;;;;;;29.27;24.58;;;;;;;19.13;100.00;100397.56;4962531;28;20108;-72
2022/08/26 03:48:19;;;;;;;37.42;23.75;;;;;;;19.10;100.00;100395.03;4965605;28;20063;-72
2022/08/26 03:50:44;;;;;;;34.22;23.45;;;;;;;19.10;100.00;100395.03;4957861;28;20044;-72
2022/08/26 03:53:10;;;;;;;40.53;26.05;;;;;;;19.09;100.00;100389.72;4957646;28;20134;-72
2022/08/26 03:55:35;;;;;;;33.38;25.40;;;;;;;19.12;100.00;100385.09;4964405;28;20671;-73
2022/08/26 03:58:01;;;;;;;29.33;21.67;;;;;;;19.16;100.00;100388.53;4961586;28;20050;-73
2022/08/26 04:00:27;;;;;;;28.02;21.25;;;;;;;19.18;100.00;100386.66;4962031;28;20034;-72
2022/08/26 04:02:52;;;;;;;31.77;21.77;;;;;;;19.13;100.00;100389.53;4958023;28;20039;-73
2022/08/26 04:05:19;;;;;;;30.38;22.42;;;;;;;19.16;100.00;100391.22;4960914;28;20096;-72
2022/08/26 04:07:45;;;;;;;29.38;21.05;;;;;;;19.17;100.00;100390.25;4963220;28;20047;-72
2022/08/26 04:10:13;;;;;;;35.50;23.55;;;;;;;19.15;100.00;100381.44;4945501;28;20055;-72
2022/08/26 04:12:39;;;;;;;38.80;21.88;;;;;;;19.08;100.00;100386.19;4964424;28;20062;-73
2022/08/26 04:15:06;;;;;;;40.13;23.17;;;;;;;19.03;100.00;100390.88;4961632;28;20501;-72
2022/08/26 04:17:31;;;;;;;31.80;25.48;;;;;;;19.04;100.00;100392.59;4963628;28;20532;-72
2022/08/26 04:19:56;;;;;;;31.23;22.38;;;;;;;19.08;100.00;100394.22;4962752;28;20035;-72
2022/08/26 04:22:22;;;;;;;18.88;17.00;;;;;;;19.07;100.00;100389.78;4961947;28;20328;-74
2022/08/26 04:24:47;;;;;;;26.08;19.65;;;;;;;19.02;100.00;100383.75;4957592;28;20471;-73
2022/08/26 04:27:12;;;;;;;24.73;19.63;;;;;;;19.01;100.00;100387.38;4931423;29;20538;-73
2022/08/26 04:29:40;;;;;;;34.70;21.83;;;;;;;19.02;100.00;100391.78;4953260;28;20073;-73
2022/08/26 04:32:07;;;;;;;22.58;20.17;;;;;;;19.10;100.00;100400.38;4946921;28;20031;-72
2022/08/26 04:34:33;;;;;;;25.60;21.52;;;;;;;19.16;100.00;100396.56;4947072;28;20051;-72
2022/08/26 04:36:58;;;;;;;32.30;24.27;;;;;;;19.18;100.00;100395.56;4949748;28;20644;-73
2022/08/26 04:39:25;;;;;;;31.25;20.77;;;;;;;19.20;100.00;100396.38;4948096;28;20058;-73
2022/08/26 04:41:53;;;;;;;25.45;18.67;;;;;;;19.21;100.00;100400.75;4961841;28;20082;-73
2022/08/26 04:44:19;;;;;;;21.25;16.95;;;;;;;19.25;100.00;100397.00;4943572;28;20046;-73
2022/08/26 04:46:45;;;;;;;27.33;19.67;;;;;;;19.29;100.00;100387.06;4963177;28;20397;-73
2022/08/26 04:49:11;;;;;;;20.65;18.33;;;;;;;19.34;100.00;100385.03;4958806;28;20024;-73
2022/08/26 04:51:37;;;;;;;22.23;19.85;;;;;;;19.35;100.00;100384.09;4961582;28;20114;-73
2022/08/26 04:54:05;;;;;;;26.38;17.88;;;;;;;19.36;100.00;100377.81;4964541;28;20126;-73
2022/08/26 04:56:34;;;;;;;30.80;21.83;;;;;;;19.37;100.00;100389.38;4958066;28;20039;-73
2022/08/26 04:59:01;;;;;;;24.45;18.75;;;;;;;19.39;100.00;100382.16;4951358;28;20478;-73
2022/08/26 05:01:27;;;;;;;40.90;28.08;;;;;;;19.44;100.00;100380.13;4944820;29;20043;-73
2022/08/26 05:03:53;;;;;;;37.53;23.33;;;;;;;19.50;100.00;100379.88;4961213;28;20387;-75
2022/08/26 05:06:19;;;;;;;44.72;24.35;;;;;;;19.57;100.00;100386.69;4960362;28;20051;-75
2022/08/26 05:08:45;;;;;;;29.33;24.13;;;;;;;19.53;100.00;100379.72;4963828;28;20057;-75
2022/08/26 05:11:10;;;;;;;41.40;26.40;;;;;;;19.47;100.00;100388.03;4961681;28;20043;-76
2022/08/26 05:13:37;;;;;;;52.45;31.13;;;;;;;19.49;100.00;100394.16;4962845;28;20046;-75
2022/08/26 05:16:09;;;;;;;40.95;29.75;;;;;;;19.50;100.00;100390.56;4963272;28;20555;-75
2022/08/26 05:18:36;;;;;;;45.17;30.15;;;;;;;19.46;100.00;100386.28;4960904;28;20166;-76
2022/08/26 05:21:02;;;;;;;45.35;30.65;;;;;;;19.47;100.00;100394.25;4957828;28;20035;-75
2022/08/26 05:23:30;;;;;;;62.05;35.67;;;;;;;19.51;100.00;100392.28;4951286;28;20054;-75
2022/08/26 05:25:58;;;;;;;43.90;33.25;;;;;;;19.48;100.00;100390.63;4959448;28;20177;-76
2022/08/26 05:28:24;;;;;;;39.13;30.30;;;;;;;19.55;100.00;100393.03;4959060;28;20097;-76
2022/08/26 05:30:50;;;;;;;50.67;37.53;;;;;;;19.63;100.00;100394.41;4960813;28;20031;-75
2022/08/26 05:33:16;;;;;;;38.15;26.75;;;;;;;19.68;100.00;100395.13;4964884;28;20569;-75
2022/08/26 05:35:42;;;;;;;34.22;27.90;;;;;;;19.74;100.00;100393.09;4963368;28;20577;-75
2022/08/26 05:38:11;;;;;;;40.05;29.02;;;;;;;19.73;100.00;100399.38;4964436;28;20118;-75
2022/08/26 05:40:39;;;;;;;33.95;26.80;;;;;;;19.67;100.00;100393.34;4967526;28;20093;-76
2022/08/26 05:43:09;;;;;;;32.78;27.27;;;;;;;19.66;100.00;100388.97;4944748;28;20050;-75
2022/08/26 05:45:37;;;;;;;35.90;30.73;;;;;;;19.69;100.00;100395.97;4949056;28;20505;-76
2022/08/26 05:48:06;;;;;;;33.30;29.30;;;;;;;19.70;100.00;100393.25;4966480;28;20445;-76
2022/08/26 05:50:38;;;;;;;45.25;30.98;;;;;;;19.77;100.00;100390.28;4964290;28;20066;-76
2022/08/26 05:53:06;;;;;;;36.83;29.98;;;;;;;19.78;100.00;100397.34;4965677;28;20094;-75
2022/08/26 05:55:32;;;;;;;30.25;26.00;;;;;;;19.86;100.00;100392.53;4965697;28;20043;-76
2022/08/26 05:57:57;;;;;;;34.88;25.67;;;;;;;19.92;100.00;100394.91;4964641;28;20417;-75
2022/08/26 06:00:23;;;;;;;31.25;26.45;;;;;;;19.97;100.00;100390.22;4967382;28;20027;-75
2022/08/26 06:02:48;;;;;;;49.63;28.35;;;;;;;20.02;100.00;100390.00;4946364;28;20043;-75
2022/08/26 06:05:13;;;;;;;43.83;24.90;;;;;;;20.02;100.00;100388.19;4946440;28;20109;-76
2022/08/26 06:10:22;;;;;;;53.03;35.50;;;;;;;20.30;100.00;100397.56;4961048;28;20046;-76
2022/08/26 06:12:47;;;;;;;41.83;30.83;;;;;;;20.47;100.00;100392.25;4948506;28;20038;-75
2022/08/26 06:15:13;;;;;;;45.50;30.77;;;;;;;20.65;100.00;100400.38;4965226;28;20057;-75
2022/08/26 06:17:39;;;;;;;33.40;26.77;;;;;;;20.79;100.00;100400.53;4963535;28;20121;-75
2022/08/26 06:20:04;;;;;;;37.50;28.80;;;;;;;20.89;100.00;100406.31;4964277;28;20054;-75
2022/08/26 06:27:57;;;;;;;50.20;31.58;;;;;;;20.97;100.00;100404.94;4963509;28;20516;-76
2022/08/26 06:30:22;;;;;;;53.47;35.00;;;;;;;21.06;100.00;100405.44;4964488;28;20039;-76
2022/08/26 06:32:48;;;;;;;40.97;27.63;;;;;;;21.20;100.00;100406.44;4966093;28;20054;-76
2022/08/26 06:35:13;;;;;;;41.22;28.30;;;;;;;21.32;100.00;100407.59;4963133;28;20046;-76
2022/08/26 06:37:39;;;;;;;46.30;30.23;;;;;;;21.38;100.00;100406.47;4963805;28;20081;-76
2022/08/26 06:40:05;;;;;;;44.38;32.22;;;;;;;21.51;100.00;100410.25;4947932;28;20031;-76
2022/08/26 06:42:31;;;;;;;41.63;29.63;;;;;;;21.71;99.78;100406.47;4964599;28;20159;-75
2022/08/26 06:44:57;;;;;;;38.58;32.85;;;;;;;21.98;98.33;100395.16;4964358;28;20612;-75
2022/08/26 06:47:22;;;;;;;43.70;30.88;;;;;;;22.19;96.81;100404.75;4966161;28;20041;-76
2022/08/26 06:49:47;;;;;;;47.75;33.22;;;;;;;22.34;96.41;100399.44;4945737;28;20101;-76
2022/08/26 06:52:13;;;;;;;50.15;31.77;;;;;;;22.58;95.75;100395.31;4965997;28;20631;-75
2022/08/26 06:54:41;;;;;;;49.67;33.30;;;;;;;22.86;94.40;100396.41;4963781;28;20442;-75
2022/08/26 06:57:07;;;;;;;48.55;34.50;;;;;;;23.16;92.70;100394.59;4964622;28;20397;-76
2022/08/26 06:59:33;;;;;;;44.38;30.48;;;;;;;23.33;91.20;100396.25;4965567;28;20034;-76
2022/08/26 07:01:58;;;;;;;39.75;29.50;;;;;;;23.44;89.76;100400.13;4962780;28;20054;-76
2022/08/26 07:04:23;;;;;;;34.72;29.35;;;;;;;23.48;89.73;100388.19;4962779;28;20046;-75
2022/08/26 07:06:51;;;;;;;48.33;31.98;;;;;;;23.55;89.03;100378.75;4965774;28;20073;-76
2022/08/26 07:09:16;;;;;;;64.40;49.30;;;;;;;23.69;88.79;100384.16;4963777;28;20561;-75
2022/08/26 07:11:43;;;;;;;52.17;44.08;;;;;;;23.86;88.65;100377.72;4946818;28;20126;-76
2022/08/26 07:14:09;;;;;;;39.10;32.72;;;;;;;24.00;87.58;100376.84;4965357;28;20121;-75
2022/08/26 07:16:34;;;;;;;35.28;30.70;;;;;;;24.13;86.06;100382.28;4962919;28;20138;-76
2022/08/26 07:18:59;;;;;;;40.38;35.03;;;;;;;24.21;86.14;100378.16;4965941;28;20477;-76
2022/08/26 07:21:25;;;;;;;45.85;33.40;;;;;;;24.30;85.37;100382.06;4962736;28;20039;-76
2022/08/26 07:23:52;;;;;;;46.17;29.13;;;;;;;24.34;84.81;100383.59;4961355;28;20102;-76
2022/08/26 07:26:25;;;;;;;32.85;29.13;;;;;;;24.31;83.73;100386.47;4961485;28;20043;-76
2022/08/26 07:28:53;;;;;;;41.03;33.58;;;;;;;24.34;84.01;100389.00;4959295;28;20490;-76
2022/08/26 07:31:21;;;;;;;45.75;34.15;;;;;;;24.43;83.32;100387.50;4964566;28;20038;-76
2022/08/26 07:33:47;;;;;;;36.30;32.65;;;;;;;24.46;83.26;100387.34;4963888;28;20421;-76
2022/08/26 07:36:14;;;;;;;41.88;34.97;;;;;;;24.50;82.38;100383.47;4961067;28;20043;-76
2022/08/26 07:38:40;;;;;;;45.92;33.53;;;;;;;24.39;82.69;100384.16;4962552;28;20494;-76
2022/08/26 07:41:07;;;;;;;43.95;32.88;;;;;;;24.28;83.01;100381.28;4950956;28;20042;-76
2022/08/26 07:43:34;;;;;;;33.08;29.77;;;;;;;24.26;83.35;100381.41;4952146;28;20126;-76
2022/08/26 07:45:59;;;;;;;38.17;31.20;;;;;;;24.27;83.31;100384.97;4950770;28;20434;-76
2022/08/26 07:48:25;;;;;;;34.38;30.60;;;;;;;24.28;83.08;100379.44;4954189;28;20027;-76
2022/08/26 07:50:52;;;;;;;34.38;31.00;;;;;;;24.34;82.84;100378.22;4961662;28;20667;-76
2022/08/26 07:53:19;;;;;;;36.92;30.55;;;;;;;24.37;83.15;100378.00;4959459;28;20039;-76
2022/08/26 07:55:44;;;;;;;42.78;35.60;;;;;;;24.60;82.29;100364.81;4961288;28;20042;-76
2022/08/26 07:58:10;;;;;;;39.85;34.42;;;;;;;24.66;81.56;100362.59;4962622;28;20094;-76
2022/08/26 08:00:35;;;;;;;39.15;30.55;;;;;;;24.84;81.04;100365.88;4955561;28;20066;-76
2022/08/26 08:03:02;;;;;;;35.35;31.60;;;;;;;24.97;79.98;100355.09;4957161;28;20517;-76
2022/08/26 08:05:31;;;;;;;39.58;28.63;;;;;;;25.05;79.98;100355.44;4954269;28;20376;-76
2022/08/26 08:07:57;;;;;;;34.17;30.52;;;;;;;25.10;79.62;100355.97;4958296;28;20054;-76
2022/08/26 08:10:24;;;;;;;34.00;27.80;;;;;;;25.12;79.42;100363.97;4963299;28;20043;-76
2022/08/26 08:12:50;;;;;;;40.25;29.20;;;;;;;25.21;79.58;100354.41;4961215;28;20047;-76
2022/08/26 08:15:18;;;;;;;49.13;40.70;;;;;;;25.42;78.60;100361.00;4961844;28;20114;-75
2022/08/26 08:17:44;;;;;;;40.47;31.23;;;;;;;25.60;77.64;100364.22;4964127;28;20692;-75
2022/08/26 08:20:11;;;;;;;40.22;30.67;;;;;;;25.66;76.68;100363.78;4960606;28;20053;-76
2022/08/26 08:22:36;;;;;;;49.90;43.17;;;;;;;25.70;77.14;100356.28;4962907;28;20497;-76
2022/08/26 08:25:01;;;;;;;37.22;27.00;;;;;;;25.80;77.00;100360.91;4961102;28;20125;-75
2022/08/26 08:27:27;;;;;;;35.50;30.38;;;;;;;26.14;75.75;100358.50;4963577;28;20074;-75
2022/08/26 08:29:53;;;;;;;37.95;33.38;;;;;;;26.16;73.10;100350.28;4961943;28;20039;-75
2022/08/26 08:32:19;;;;;;;47.17;29.55;;;;;;;26.17;74.46;100352.88;4964345;28;20070;-75
2022/08/26 08:34:45;;;;;;;36.47;26.52;;;;;;;26.28;74.14;100345.78;4953371;28;20560;-75
2022/08/26 08:37:10;;;;;;;36.50;28.52;;;;;;;26.49;72.22;100341.47;4962001;28;20042;-74
2022/08/26 08:39:35;;;;;;;40.15;31.35;;;;;;;26.72;71.91;100336.16;4963267;28;20035;-75
2022/08/26 08:42:33;;;;;;;41.70;30.40;;;;;;;26.79;70.28;100335.59;4962957;28;20459;-73
2022/08/26 08:45:05;;;;;;;31.52;26.55;;;;;;;27.10;70.09;100330.50;4963235;28;20405;-72
2022/08/26 08:47:40;;;;;;;35.58;25.27;;;;;;;27.30;67.97;100329.81;4958782;28;20087;-72
2022/08/26 08:50:20;;;;;;;39.33;22.20;;;;;;;27.38;66.76;100331.94;4961847;28;20489;-73
2022/08/26 08:52:55;;;;;;;34.47;22.42;;;;;;;27.38;66.80;100328.31;4957987;28;20402;-72
2022/08/26 08:55:23;;;;;;;36.63;21.33;;;;;;;27.44;65.27;100328.72;4963333;28;20062;-73
2022/08/26 08:58:07;;;;;;;30.85;20.40;;;;;;;27.57;64.73;100327.75;4956061;28;20152;-73
2022/08/26 09:00:45;;;;;;;28.25;19.23;;;;;;;27.58;63.88;100321.31;4943996;28;20035;-73
2022/08/26 09:03:28;;;;;;;31.95;20.10;;;;;;;27.46;64.60;100315.91;4961664;28;20035;-73
2022/08/26 09:05:54;;;;;;;37.85;26.30;;;;;;;27.55;65.94;100314.28;4962038;28;20374;-72
2022/08/26 09:08:28;;;;;;;30.75;23.83;;;;;;;27.82;64.71;100313.06;4965666;28;20039;-72
2022/08/26 09:10:58;;;;;;;39.58;22.13;;;;;;;27.90;63.74;100314.19;4964972;28;20047;-72
2022/08/26 09:13:24;;;;;;;32.83;26.30;;;;;;;28.12;63.96;100312.41;4967155;28;20058;-73
2022/08/26 09:16:08;;;;;;;36.35;26.70;;;;;;;28.37;62.25;100303.94;4966348;28;20046;-72
2022/08/26 09:19:01;;;;;;;28.20;20.35;;;;;;;28.40;60.31;100300.94;4962524;28;20150;-73
2022/08/26 09:21:27;;;;;;;30.30;19.65;;;;;;;28.49;61.03;100304.75;4961037;28;20046;-72
2022/08/26 09:23:54;;;;;;;36.08;22.40;;;;;;;28.58;60.33;100295.84;4955246;28;20048;-72
2022/08/26 09:26:41;;;;;;;32.30;26.20;;;;;;;28.76;60.67;100293.38;4963656;28;20042;-73
2022/08/26 09:29:28;;;;;;;37.17;26.13;;;;;;;29.12;58.62;100299.38;4960353;28;20085;-73
2022/08/26 09:32:22;;;;;;;38.65;34.13;;;;;;;29.30;56.22;100291.47;4957930;28;20126;-72
2022/08/26 09:34:58;;;;;;;26.02;20.23;;;;;;;29.52;55.67;100295.81;4961018;28;20113;-72
2022/08/26 09:37:43;;;;;;;39.75;27.00;;;;;;;29.81;54.47;100290.50;4962361;28;20035;-73
2022/08/26 09:40:31;;;;;;;36.85;22.90;;;;;;;29.85;52.90;100280.22;4961252;28;20039;-73
2022/08/26 09:43:10;;;;;;;32.00;19.60;;;;;;;30.22;52.66;100276.84;4957223;28;20044;-72
2022/08/26 09:45:39;;;;;;;31.60;20.00;;;;;;;30.46;53.47;100279.16;4964848;28;20114;-73
2022/08/26 09:48:06;;;;;;;30.05;20.10;;;;;;;30.34;52.22;100276.59;4967468;28;20501;-72
2022/08/26 09:50:37;;;;;;;29.58;20.67;;;;;;;30.12;52.51;100274.97;4964779;28;20083;-73
2022/08/26 09:53:02;;;;;;;;;;;;;;;30.21;52.84;100272.38;4965603;28;20038;-73
2022/08/26 09:55:27;;;;;;;31.90;20.47;;;;;;;30.44;51.31;100262.97;4963348;28;19914;-72
2022/08/26 09:57:54;;;;;;;38.38;25.42;;;;;;;30.69;51.62;100264.22;4961343;28;20050;-73
2022/08/26 10:00:42;;;;;;;35.60;24.52;;;;;;;30.92;48.89;100267.53;4967143;28;20812;-72
2022/08/26 10:03:22;;;;;;;31.25;19.65;;;;;;;30.96;49.51;100258.03;4962160;28;20089;-73
2022/08/26 10:06:06;;;;;;;27.33;18.25;;;;;;;31.08;48.59;100255.16;4962756;28;20039;-72
2022/08/26 10:08:33;;;;;;;34.38;26.33;;;;;;;31.10;49.64;100264.91;4957720;28;20066;-72
2022/08/26 10:11:02;;;;;;;30.05;23.45;;;;;;;31.20;49.19;100243.91;4956671;28;20402;-72
2022/08/26 10:13:32;;;;;;;40.80;25.58;;;;;;;31.18;47.18;100239.63;4961612;28;20121;-72
2022/08/26 10:16:04;;;;;;;31.95;20.58;;;;;;;31.19;48.59;100233.16;4958237;28;20043;-72
2022/08/26 10:18:34;;;;;;;36.40;25.55;;;;;;;31.34;48.51;100228.06;4949444;28;20035;-72
2022/08/26 10:21:29;;;;;;;34.30;23.38;;;;;;;31.33;48.57;100215.44;4952837;28;20046;-72
2022/08/26 10:23:58;;;;;;;28.15;20.70;;;;;;;31.41;48.30;100212.81;4955304;28;20059;-72
2022/08/26 10:26:57;;;;;;;26.40;18.48;;;;;;;31.50;48.34;100208.34;4957500;28;20035;-73
2022/08/26 10:29:37;;;;;;;27.63;23.13;;;;;;;31.41;48.66;100202.81;4965318;28;20501;-72
2022/08/26 10:32:12;;;;;;;37.33;23.92;;;;;;;31.62;48.95;100207.09;4962773;28;20050;-72
2022/08/26 10:34:38;;;;;;;26.83;24.02;;;;;;;31.56;48.72;100194.09;4959246;28;20046;-72
2022/08/26 10:37:11;;;;;;;25.50;20.83;;;;;;;31.59;48.05;100202.81;4956351;28;20031;-72
2022/08/26 10:39:57;;;;;;;24.85;18.30;;;;;;;31.51;47.99;100193.69;4957670;28;20040;-72
2022/08/26 10:42:36;;;;;;;34.70;20.38;;;;;;;31.18;48.11;100190.56;4963382;28;20046;-72
2022/08/26 10:45:06;;;;;;;41.25;27.52;;;;;;;31.14;48.31;100194.56;4958256;28;20035;-72
2022/08/26 10:47:46;;;;;;;28.48;21.10;;;;;;;31.08;47.09;100184.28;4963164;28;20051;-72
2022/08/26 10:50:11;;;;;;;36.55;26.27;;;;;;;31.02;48.37;100180.25;4963022;28;20054;-73
2022/08/26 10:53:15;;;;;;;32.00;25.63;;;;;;;31.13;48.16;100187.41;4965620;28;20047;-72
2022/08/26 10:55:50;;;;;;;36.92;27.73;;;;;;;31.31;48.56;100180.16;4963082;28;20117;-72
2022/08/26 10:58:40;;;;;;;30.20;24.38;;;;;;;31.51;47.59;100166.41;4958376;28;20050;-72
2022/08/26 11:04:06;;;;;;;32.25;27.25;;;;;;;31.76;47.56;100153.91;4960466;28;20038;-72
2022/08/26 11:06:31;;;;;;;34.05;28.83;;;;;;;31.75;47.58;100160.34;4961869;28;20502;-72
2022/08/26 11:09:03;;;;;;;36.60;27.92;;;;;;;31.80;47.73;100160.75;4965793;28;20050;-72
2022/08/26 11:11:40;;;;;;;;;;;;;;;31.75;46.77;100160.34;4963923;28;20058;-72
2022/08/26 11:14:08;;;;;;;34.55;22.67;;;;;;;31.67;47.36;100152.94;4962914;28;20262;-72
2022/08/26 11:16:42;;;;;;;37.45;29.15;;;;;;;31.66;47.08;100152.09;4959252;28;20059;-73
2022/08/26 11:19:08;;;;;;;37.85;30.52;;;;;;;31.79;47.26;100140.81;4962985;28;20094;-72
2022/08/26 11:21:48;;;;;;;27.50;24.75;;;;;;;31.87;47.02;100149.06;4956363;28;20130;-73
2022/08/26 11:24:51;;;;;;;36.35;29.42;;;;;;;31.96;46.94;100141.81;4959361;28;20053;-72
2022/08/26 11:27:22;;;;;;;27.95;23.02;;;;;;;32.11;46.85;100128.47;4962530;28;20030;-72